createdAt,value
2018-05-13T00:01:35.145Z,988.39
2018-05-13T00:02:35.028Z,988.35
2018-05-13T00:04:27.786Z,988.35
2018-05-13T00:05:27.763Z,988.36
2018-05-13T00:07:20.555Z,988.35
2018-05-13T00:08:20.421Z,988.34
2018-05-13T00:10:13.288Z,988.26
2018-05-13T00:11:13.176Z,988.30
2018-05-13T00:13:06.023Z,988.27
2018-05-13T00:14:05.923Z,988.31
2018-05-13T00:15:58.704Z,988.27
2018-05-13T00:16:58.568Z,988.27
2018-05-13T00:18:51.446Z,988.23
2018-05-13T00:19:51.346Z,988.23
2018-05-13T00:21:44.067Z,988.20
2018-05-13T00:22:43.992Z,988.22
2018-05-13T00:24:36.824Z,988.19
2018-05-13T00:25:36.719Z,988.21
2018-05-13T00:27:29.573Z,988.18
2018-05-13T00:28:29.473Z,988.19
2018-05-13T00:30:22.304Z,988.16
2018-05-13T00:31:22.214Z,988.15
2018-05-13T00:33:15.065Z,988.08
2018-05-13T00:34:14.979Z,988.11
2018-05-13T00:36:07.713Z,988.09
2018-05-13T00:37:07.607Z,988.12
2018-05-13T00:39:00.476Z,988.08
2018-05-13T00:40:00.349Z,988.06
2018-05-13T00:41:53.123Z,988.05
2018-05-13T00:42:53.031Z,988.02
2018-05-13T00:44:46.869Z,988.00
2018-05-13T00:45:46.773Z,987.96
2018-05-13T00:47:39.537Z,987.97
2018-05-13T00:48:39.444Z,987.96
2018-05-13T00:50:32.301Z,987.99
2018-05-13T00:51:32.312Z,987.95
2018-05-13T00:53:25.132Z,987.92
2018-05-13T00:54:24.944Z,987.89
2018-05-13T00:56:18.300Z,987.90
2018-05-13T00:57:18.208Z,987.88
2018-05-13T00:59:11.047Z,987.81
2018-05-13T01:00:10.929Z,987.81
2018-05-13T01:02:03.779Z,987.81
2018-05-13T01:03:03.691Z,987.79
2018-05-13T01:04:56.440Z,987.79
2018-05-13T01:05:56.338Z,987.81
2018-05-13T01:07:49.172Z,987.84
2018-05-13T01:08:49.094Z,987.84
2018-05-13T01:10:41.860Z,987.85
2018-05-13T01:11:41.732Z,987.84
2018-05-13T01:13:34.569Z,987.85
2018-05-13T01:14:34.470Z,987.84
2018-05-13T01:16:27.240Z,987.79
2018-05-13T01:17:27.145Z,987.80
2018-05-13T01:19:19.866Z,987.82
2018-05-13T01:20:19.814Z,987.82
2018-05-13T01:22:12.532Z,987.85
2018-05-13T01:23:12.419Z,987.83
2018-05-13T01:25:05.313Z,987.76
2018-05-13T01:26:05.191Z,987.76
2018-05-13T01:27:57.923Z,987.73
2018-05-13T01:28:57.857Z,987.78
2018-05-13T01:30:50.572Z,987.73
2018-05-13T01:31:50.477Z,987.77
2018-05-13T01:33:43.307Z,987.75
2018-05-13T01:34:43.222Z,987.72
2018-05-13T01:36:36.497Z,987.72
2018-05-13T01:37:36.375Z,987.73
2018-05-13T01:39:29.225Z,987.76
2018-05-13T01:40:29.142Z,987.75
2018-05-13T01:42:21.902Z,987.73
2018-05-13T01:43:21.778Z,987.73
2018-05-13T01:45:14.648Z,987.71
2018-05-13T01:46:14.516Z,987.71
2018-05-13T01:48:07.372Z,987.69
2018-05-13T01:49:07.267Z,987.69
2018-05-13T01:51:00.136Z,987.71
2018-05-13T01:52:00.022Z,987.70
2018-05-13T01:53:52.881Z,987.77
2018-05-13T01:54:52.766Z,987.78
2018-05-13T01:56:45.634Z,987.82
2018-05-13T01:57:45.564Z,987.84
2018-05-13T01:59:39.835Z,987.82
2018-05-13T02:00:39.716Z,987.78
2018-05-13T02:02:32.557Z,987.78
2018-05-13T02:03:32.454Z,987.76
2018-05-13T02:05:25.300Z,987.77
2018-05-13T02:06:25.193Z,987.74
2018-05-13T02:08:18.083Z,987.80
2018-05-13T02:09:17.959Z,987.79
2018-05-13T02:11:10.809Z,987.77
2018-05-13T02:12:10.693Z,987.75
2018-05-13T02:14:03.462Z,987.74
2018-05-13T02:15:03.348Z,987.69
2018-05-13T02:16:56.233Z,987.67
2018-05-13T02:17:56.109Z,987.66
2018-05-13T02:19:48.948Z,987.67
2018-05-13T02:20:48.836Z,987.68
2018-05-13T02:22:41.581Z,987.74
2018-05-13T02:23:41.500Z,987.71
2018-05-13T02:25:34.354Z,987.71
2018-05-13T02:26:34.142Z,987.71
2018-05-13T02:28:27.005Z,987.74
2018-05-13T02:29:26.900Z,987.72
2018-05-13T02:31:19.767Z,987.71
2018-05-13T02:32:19.637Z,987.73
2018-05-13T02:34:12.944Z,987.69
2018-05-13T02:35:12.813Z,987.67
2018-05-13T02:37:05.581Z,987.65
2018-05-13T02:38:05.444Z,987.68
2018-05-13T02:39:58.204Z,987.69
2018-05-13T02:40:58.097Z,987.66
2018-05-13T02:42:50.949Z,987.66
2018-05-13T02:43:50.857Z,987.67
2018-05-13T02:45:44.213Z,987.70
2018-05-13T02:46:43.588Z,987.67
2018-05-13T02:48:36.336Z,987.65
2018-05-13T02:49:36.282Z,987.65
2018-05-13T02:51:30.107Z,987.60
2018-05-13T02:52:29.054Z,987.62
2018-05-13T02:54:22.260Z,987.63
2018-05-13T02:55:22.150Z,987.64
2018-05-13T02:57:15.021Z,987.60
2018-05-13T02:58:14.897Z,987.64
2018-05-13T03:00:07.752Z,987.61
2018-05-13T03:01:07.644Z,987.56
2018-05-13T03:03:00.502Z,987.57
2018-05-13T03:04:00.470Z,987.57
2018-05-13T03:05:54.156Z,987.56
2018-05-13T03:06:53.217Z,987.52
2018-05-13T03:08:45.903Z,987.55
2018-05-13T03:09:45.790Z,987.52
2018-05-13T03:11:38.653Z,987.54
2018-05-13T03:12:38.541Z,987.55
2018-05-13T03:14:31.279Z,987.55
2018-05-13T03:15:31.189Z,987.55
2018-05-13T03:17:23.953Z,987.52
2018-05-13T03:18:23.840Z,987.56
2018-05-13T03:20:17.098Z,987.54
2018-05-13T03:21:17.006Z,987.60
2018-05-13T03:23:09.843Z,987.57
2018-05-13T03:24:09.743Z,987.56
2018-05-13T03:26:02.492Z,987.52
2018-05-13T03:27:02.385Z,987.50
2018-05-13T03:28:55.151Z,987.56
2018-05-13T03:29:55.043Z,987.56
2018-05-13T03:31:47.919Z,987.55
2018-05-13T03:32:47.690Z,987.55
2018-05-13T03:34:40.564Z,987.50
2018-05-13T03:35:40.430Z,987.48
2018-05-13T03:37:33.175Z,987.54
2018-05-13T03:38:33.082Z,987.56
2018-05-13T03:40:25.839Z,987.51
2018-05-13T03:41:25.728Z,987.46
2018-05-13T03:43:18.480Z,987.48
2018-05-13T03:44:18.393Z,987.50
2018-05-13T03:46:11.160Z,987.46
2018-05-13T03:47:11.041Z,987.50
2018-05-13T03:49:03.783Z,987.50
2018-05-13T03:50:03.670Z,987.52
2018-05-13T03:51:56.516Z,987.50
2018-05-13T03:52:56.420Z,987.52
2018-05-13T03:54:49.794Z,987.49
2018-05-13T03:55:49.170Z,987.48
2018-05-13T03:57:42.090Z,987.48
2018-05-13T03:58:41.948Z,987.47
2018-05-13T04:00:34.778Z,987.45
2018-05-13T04:01:34.671Z,987.46
2018-05-13T04:03:27.426Z,987.42
2018-05-13T04:04:27.352Z,987.46
2018-05-13T04:06:20.204Z,987.46
2018-05-13T04:07:20.083Z,987.49
2018-05-13T04:09:12.820Z,987.46
2018-05-13T04:10:12.730Z,987.52
2018-05-13T04:12:05.476Z,987.51
2018-05-13T04:13:05.367Z,987.47
2018-05-13T04:14:58.624Z,987.49
2018-05-13T04:15:58.540Z,987.48
2018-05-13T04:17:51.786Z,987.47
2018-05-13T04:18:51.685Z,987.49
2018-05-13T04:20:44.421Z,987.48
2018-05-13T04:21:44.330Z,987.44
2018-05-13T04:23:37.294Z,987.47
2018-05-13T04:24:37.181Z,987.45
2018-05-13T04:26:30.029Z,987.47
2018-05-13T04:27:29.935Z,987.47
2018-05-13T04:29:22.686Z,987.47
2018-05-13T04:30:22.582Z,987.45
2018-05-13T04:32:15.479Z,987.42
2018-05-13T04:33:15.318Z,987.44
2018-05-13T04:35:08.089Z,987.45
2018-05-13T04:36:07.993Z,987.43
2018-05-13T04:38:00.736Z,987.46
2018-05-13T04:39:00.626Z,987.45
2018-05-13T04:40:53.359Z,987.47
2018-05-13T04:41:53.291Z,987.43
2018-05-13T04:43:46.052Z,987.46
2018-05-13T04:44:45.910Z,987.46
2018-05-13T04:46:38.761Z,987.44
2018-05-13T04:47:38.644Z,987.44
2018-05-13T04:49:31.445Z,987.43
2018-05-13T04:50:31.329Z,987.44
2018-05-13T04:52:24.153Z,987.42
2018-05-13T04:53:24.059Z,987.39
2018-05-13T04:55:16.927Z,987.31
2018-05-13T04:56:16.830Z,987.33
2018-05-13T04:58:10.066Z,987.29
2018-05-13T04:59:09.972Z,987.37
2018-05-13T05:01:02.815Z,987.35
2018-05-13T05:02:02.768Z,987.37
2018-05-13T05:03:55.506Z,987.33
2018-05-13T05:04:55.408Z,987.33
2018-05-13T05:06:49.497Z,987.35
2018-05-13T05:07:48.024Z,987.38
2018-05-13T05:09:40.877Z,987.38
2018-05-13T05:10:40.768Z,987.36
2018-05-13T05:12:33.509Z,987.35
2018-05-13T05:13:33.411Z,987.33
2018-05-13T05:15:26.443Z,987.35
2018-05-13T05:16:26.156Z,987.38
2018-05-13T05:18:19.008Z,987.33
2018-05-13T05:19:18.928Z,987.34
2018-05-13T05:21:11.763Z,987.35
2018-05-13T05:22:11.674Z,987.37
2018-05-13T05:24:04.907Z,987.38
2018-05-13T05:25:04.818Z,987.39
2018-05-13T05:26:57.577Z,987.34
2018-05-13T05:27:57.556Z,987.32
2018-05-13T05:29:50.307Z,987.34
2018-05-13T05:30:50.211Z,987.30
2018-05-13T05:32:42.969Z,987.31
2018-05-13T05:33:42.858Z,987.31
2018-05-13T05:35:35.600Z,987.33
2018-05-13T05:36:35.512Z,987.33
2018-05-13T05:38:28.266Z,987.35
2018-05-13T05:39:28.153Z,987.29
2018-05-13T05:41:20.992Z,987.34
2018-05-13T05:42:20.897Z,987.29
2018-05-13T05:44:14.713Z,987.29
2018-05-13T05:45:14.590Z,987.28
2018-05-13T05:47:07.356Z,987.27
2018-05-13T05:48:07.227Z,987.29
2018-05-13T05:50:00.203Z,987.32
2018-05-13T05:50:59.985Z,987.25
2018-05-13T05:52:52.834Z,987.24
2018-05-13T05:53:52.731Z,987.21
2018-05-13T05:55:45.559Z,987.22
2018-05-13T05:56:45.501Z,987.24
2018-05-13T05:58:38.342Z,987.28
2018-05-13T05:59:38.231Z,987.25
2018-05-13T06:01:31.986Z,987.21
2018-05-13T06:02:31.895Z,987.23
2018-05-13T06:04:24.753Z,987.21
2018-05-13T06:05:24.645Z,987.20
2018-05-13T06:07:17.502Z,987.17
2018-05-13T06:08:17.410Z,987.14
2018-05-13T06:10:10.170Z,987.19
2018-05-13T06:11:10.041Z,987.20
2018-05-13T06:13:02.877Z,987.20
2018-05-13T06:14:02.792Z,987.20
2018-05-13T06:15:55.645Z,987.25
2018-05-13T06:16:55.554Z,987.26
2018-05-13T06:18:48.280Z,987.22
2018-05-13T06:19:48.192Z,987.15
2018-05-13T06:21:41.059Z,987.16
2018-05-13T06:22:40.940Z,987.16
2018-05-13T06:24:33.724Z,987.15
2018-05-13T06:25:33.609Z,987.13
2018-05-13T06:27:26.426Z,987.14
2018-05-13T06:28:26.334Z,987.15
2018-05-13T06:30:19.235Z,987.14
2018-05-13T06:31:19.077Z,987.15
2018-05-13T06:33:11.820Z,987.16
2018-05-13T06:34:11.740Z,987.14
2018-05-13T06:36:04.585Z,987.16
2018-05-13T06:37:04.493Z,987.20
2018-05-13T06:38:57.328Z,987.18
2018-05-13T06:39:57.253Z,987.23
2018-05-13T06:41:50.111Z,987.22
2018-05-13T06:42:49.996Z,987.23
2018-05-13T06:44:42.860Z,987.21
2018-05-13T06:45:42.730Z,987.21
2018-05-13T06:47:35.487Z,987.21
2018-05-13T06:48:35.410Z,987.23
2018-05-13T06:50:28.223Z,987.25
2018-05-13T06:51:28.168Z,987.28
2018-05-13T06:53:21.904Z,987.32
2018-05-13T06:54:20.919Z,987.36
2018-05-13T06:56:13.711Z,987.31
2018-05-13T06:57:13.716Z,987.27
2018-05-13T06:59:06.502Z,987.22
2018-05-13T07:00:06.379Z,987.27
2018-05-13T07:01:59.230Z,987.30
2018-05-13T07:02:59.123Z,987.28
2018-05-13T07:04:51.977Z,987.29
2018-05-13T07:05:51.880Z,987.25
2018-05-13T07:07:44.729Z,987.27
2018-05-13T07:08:44.621Z,987.24
2018-05-13T07:10:37.479Z,987.25
2018-05-13T07:11:37.379Z,987.23
2018-05-13T07:13:30.656Z,987.25
2018-05-13T07:14:30.546Z,987.26
2018-05-13T07:16:23.468Z,987.30
2018-05-13T07:17:23.274Z,987.29
2018-05-13T07:19:16.056Z,987.28
2018-05-13T07:20:15.957Z,987.26
2018-05-13T07:22:08.773Z,987.24
2018-05-13T07:23:08.678Z,987.23
2018-05-13T07:25:01.533Z,987.25
2018-05-13T07:26:01.424Z,987.24
2018-05-13T07:27:54.167Z,987.26
2018-05-13T07:28:54.182Z,987.25
2018-05-13T07:30:46.941Z,987.21
2018-05-13T07:31:46.855Z,987.26
2018-05-13T07:33:40.678Z,987.28
2018-05-13T07:34:39.995Z,987.23
2018-05-13T07:36:32.839Z,987.20
2018-05-13T07:37:32.730Z,987.22
2018-05-13T07:39:25.610Z,987.17
2018-05-13T07:40:25.500Z,987.17
2018-05-13T07:42:18.357Z,987.16
2018-05-13T07:43:18.315Z,987.15
2018-05-13T07:45:11.093Z,987.14
2018-05-13T07:46:10.978Z,987.11
2018-05-13T07:48:03.819Z,987.11
2018-05-13T07:49:03.738Z,987.08
2018-05-13T07:50:57.015Z,987.06
2018-05-13T07:51:56.582Z,987.06
2018-05-13T07:53:49.331Z,987.05
2018-05-13T07:54:49.236Z,987.05
2018-05-13T07:56:42.134Z,987.03
2018-05-13T07:57:41.994Z,986.99
2018-05-13T07:59:34.845Z,987.01
2018-05-13T08:00:34.731Z,987.00
2018-05-13T08:02:27.603Z,987.00
2018-05-13T08:03:27.501Z,987.00
2018-05-13T08:05:20.325Z,986.98
2018-05-13T08:06:20.241Z,987.01
2018-05-13T08:08:13.306Z,986.93
2018-05-13T08:09:12.992Z,986.96
2018-05-13T08:11:05.823Z,986.94
2018-05-13T08:12:05.751Z,986.93
2018-05-13T08:13:58.612Z,986.96
2018-05-13T08:14:58.486Z,986.94
2018-05-13T08:16:51.883Z,986.97
2018-05-13T08:17:51.739Z,986.96
2018-05-13T08:19:44.611Z,986.95
2018-05-13T08:20:44.517Z,986.98
2018-05-13T08:22:37.373Z,986.95
2018-05-13T08:23:37.256Z,986.95
2018-05-13T08:25:30.102Z,986.92
2018-05-13T08:26:30.007Z,986.93
2018-05-13T08:28:22.885Z,986.95
2018-05-13T08:29:22.767Z,986.92
2018-05-13T08:31:15.579Z,986.91
2018-05-13T08:32:15.521Z,986.92
2018-05-13T08:34:08.349Z,986.91
2018-05-13T08:35:08.237Z,986.90
2018-05-13T08:37:01.076Z,986.88
2018-05-13T08:38:01.002Z,986.92
2018-05-13T08:39:53.851Z,986.89
2018-05-13T08:40:53.737Z,986.91
2018-05-13T08:42:46.594Z,986.89
2018-05-13T08:43:47.750Z,986.89
2018-05-13T08:45:40.695Z,986.79
2018-05-13T08:46:39.381Z,986.78
2018-05-13T08:48:56.118Z,986.78
2018-05-13T08:49:49.413Z,986.75
2018-05-13T08:51:42.383Z,986.78
2018-05-13T08:52:42.282Z,986.75
2018-05-13T08:54:50.600Z,986.79
2018-05-13T08:55:45.761Z,986.72
2018-05-13T08:57:38.609Z,986.74
2018-05-13T08:58:38.530Z,986.83
2018-05-13T09:00:31.467Z,986.81
2018-05-13T09:01:31.364Z,986.78
2018-05-13T09:03:24.189Z,986.81
2018-05-13T09:04:24.140Z,986.78
2018-05-13T09:06:16.993Z,986.74
2018-05-13T09:07:16.856Z,986.73
2018-05-13T09:09:09.708Z,986.76
2018-05-13T09:10:09.606Z,986.71
2018-05-13T09:12:02.461Z,986.77
2018-05-13T09:13:02.368Z,986.72
2018-05-13T09:14:55.193Z,986.69
2018-05-13T09:15:55.114Z,986.74
2018-05-13T09:17:49.478Z,986.71
2018-05-13T09:18:49.288Z,986.73
2018-05-13T09:20:42.252Z,986.76
2018-05-13T09:21:42.038Z,986.72
2018-05-13T09:23:34.897Z,986.74
2018-05-13T09:24:34.814Z,986.74
2018-05-13T09:26:27.660Z,986.75
2018-05-13T09:27:27.544Z,986.77
2018-05-13T09:29:20.383Z,986.76
2018-05-13T09:30:20.294Z,986.75
2018-05-13T09:32:13.137Z,986.71
2018-05-13T09:33:13.052Z,986.70
2018-05-13T09:35:05.868Z,986.71
2018-05-13T09:36:05.774Z,986.68
2018-05-13T09:37:58.658Z,986.72
2018-05-13T09:38:58.537Z,986.76
2018-05-13T09:40:51.791Z,986.73
2018-05-13T09:41:51.699Z,986.76
2018-05-13T09:43:44.562Z,986.70
2018-05-13T09:44:44.458Z,986.75
2018-05-13T09:46:37.277Z,986.78
2018-05-13T09:47:37.206Z,986.72
2018-05-13T09:49:30.105Z,986.72
2018-05-13T09:50:29.969Z,986.70
2018-05-13T09:52:22.896Z,986.68
2018-05-13T09:53:22.711Z,986.70
2018-05-13T09:55:15.580Z,986.69
2018-05-13T09:56:15.460Z,986.67
2018-05-13T09:58:08.498Z,986.63
2018-05-13T09:59:08.391Z,986.63
2018-05-13T10:01:01.151Z,986.66
2018-05-13T10:02:01.049Z,986.59
2018-05-13T10:03:53.912Z,986.63
2018-05-13T10:04:53.822Z,986.62
2018-05-13T10:06:46.649Z,986.57
2018-05-13T10:07:46.547Z,986.58
2018-05-13T10:09:39.472Z,986.56
2018-05-13T10:10:39.338Z,986.54
2018-05-13T10:12:32.636Z,986.51
2018-05-13T10:13:32.561Z,986.54
2018-05-13T10:15:26.348Z,986.50
2018-05-13T10:16:26.126Z,986.51
2018-05-13T10:18:18.956Z,986.52
2018-05-13T10:19:18.894Z,986.53
2018-05-13T10:21:12.362Z,986.50
2018-05-13T10:22:12.636Z,986.52
2018-05-13T10:24:05.382Z,986.46
2018-05-13T10:25:05.289Z,986.56
2018-05-13T10:26:58.146Z,986.48
2018-05-13T10:27:58.146Z,986.47
2018-05-13T10:29:50.900Z,986.45
2018-05-13T10:30:50.794Z,986.49
2018-05-13T10:32:44.169Z,986.47
2018-05-13T10:33:43.560Z,986.43
2018-05-13T10:35:36.452Z,986.38
2018-05-13T10:36:36.335Z,986.34
2018-05-13T10:38:29.154Z,986.34
2018-05-13T10:39:29.062Z,986.35
2018-05-13T10:41:21.897Z,986.34
2018-05-13T10:42:21.790Z,986.39
2018-05-13T10:44:14.623Z,986.28
2018-05-13T10:45:14.553Z,986.32
2018-05-13T10:47:07.387Z,986.26
2018-05-13T10:48:07.299Z,986.27
2018-05-13T10:50:00.123Z,986.23
2018-05-13T10:51:00.046Z,986.18
2018-05-13T10:52:52.997Z,986.20
2018-05-13T10:53:52.817Z,986.24
2018-05-13T10:55:46.545Z,986.14
2018-05-13T10:56:46.372Z,986.16
2018-05-13T10:58:39.292Z,986.19
2018-05-13T10:59:39.239Z,986.15
2018-05-13T11:01:31.956Z,986.15
2018-05-13T11:02:31.863Z,986.10
2018-05-13T11:04:24.736Z,986.08
2018-05-13T11:05:24.670Z,986.13
2018-05-13T11:07:17.444Z,986.11
2018-05-13T11:08:17.370Z,986.15
2018-05-13T11:10:10.289Z,986.13
2018-05-13T11:11:10.403Z,986.07
2018-05-13T11:13:03.032Z,986.14
2018-05-13T11:14:02.879Z,986.09
2018-05-13T11:15:55.753Z,986.01
2018-05-13T11:16:55.666Z,986.08
2018-05-13T11:18:48.481Z,985.99
2018-05-13T11:19:48.368Z,985.99
2018-05-13T11:21:41.230Z,985.98
2018-05-13T11:22:41.126Z,985.91
2018-05-13T11:24:33.941Z,985.94
2018-05-13T11:25:33.852Z,985.95
2018-05-13T11:27:26.704Z,985.99
2018-05-13T11:28:26.610Z,985.95
2018-05-13T11:30:19.437Z,985.92
2018-05-13T11:31:19.354Z,985.89
2018-05-13T11:33:12.206Z,985.85
2018-05-13T11:34:12.102Z,985.87
2018-05-13T11:36:04.975Z,985.84
2018-05-13T11:37:04.862Z,985.83
2018-05-13T11:38:57.707Z,985.79
2018-05-13T11:39:57.698Z,985.79
2018-05-13T11:41:50.461Z,985.76
2018-05-13T11:42:50.350Z,985.80
2018-05-13T11:44:43.849Z,985.80
2018-05-13T11:45:43.122Z,985.86
2018-05-13T11:47:35.968Z,985.86
2018-05-13T11:48:35.854Z,985.78
2018-05-13T11:50:28.684Z,985.81
2018-05-13T11:51:28.619Z,985.85
2018-05-13T11:53:21.444Z,985.87
2018-05-13T11:54:21.359Z,985.77
2018-05-13T11:56:14.207Z,985.79
2018-05-13T11:57:14.202Z,985.78
2018-05-13T11:59:06.953Z,985.77
2018-05-13T12:00:06.871Z,985.77
2018-05-13T12:02:00.187Z,985.80
2018-05-13T12:03:00.131Z,985.75
2018-05-13T12:04:52.913Z,985.78
2018-05-13T12:05:52.848Z,985.78
2018-05-13T12:07:45.668Z,985.75
2018-05-13T12:08:45.525Z,985.81
2018-05-13T12:10:38.360Z,985.77
2018-05-13T12:11:38.259Z,985.75
2018-05-13T12:13:31.119Z,985.84
2018-05-13T12:14:31.007Z,985.71
2018-05-13T12:16:23.859Z,985.69
2018-05-13T12:17:23.812Z,985.74
2018-05-13T12:19:16.601Z,985.80
2018-05-13T12:20:16.551Z,985.79
2018-05-13T12:22:09.391Z,985.74
2018-05-13T12:23:09.263Z,985.75
2018-05-13T12:25:02.122Z,985.78
2018-05-13T12:26:02.012Z,985.65
2018-05-13T12:27:54.868Z,985.68
2018-05-13T12:28:54.857Z,985.61
2018-05-13T12:30:47.602Z,985.63
2018-05-13T12:31:47.503Z,985.63
2018-05-13T12:33:40.262Z,985.67
2018-05-13T12:34:40.189Z,985.62
2018-05-13T12:36:32.996Z,985.64
2018-05-13T12:37:32.919Z,985.61
2018-05-13T12:39:25.737Z,985.62
2018-05-13T12:40:25.672Z,985.58
2018-05-13T12:42:18.492Z,985.66
2018-05-13T12:43:18.398Z,985.72
2018-05-13T12:45:11.227Z,985.65
2018-05-13T12:46:11.146Z,985.62
2018-05-13T12:48:03.996Z,985.64
2018-05-13T12:49:03.905Z,985.69
2018-05-13T12:50:57.263Z,985.59
2018-05-13T12:51:57.157Z,985.64
2018-05-13T12:53:49.990Z,985.66
2018-05-13T12:54:49.920Z,985.69
2018-05-13T12:56:42.886Z,985.63
2018-05-13T12:57:42.671Z,985.60
2018-05-13T12:59:35.501Z,985.65
2018-05-13T13:00:35.416Z,985.68
2018-05-13T13:02:28.270Z,985.62
2018-05-13T13:03:28.191Z,985.62
2018-05-13T13:05:21.022Z,985.54
2018-05-13T13:06:20.914Z,985.62
2018-05-13T13:08:13.752Z,985.53
2018-05-13T13:09:13.739Z,985.51
2018-05-13T13:11:06.487Z,985.46
2018-05-13T13:12:06.409Z,985.42
2018-05-13T13:13:59.769Z,985.42
2018-05-13T13:14:59.671Z,985.44
2018-05-13T13:16:52.525Z,985.39
2018-05-13T13:17:52.443Z,985.37
2018-05-13T13:23:54.104Z,985.30
2018-05-13T13:25:41.855Z,985.22
2018-05-13T13:26:41.162Z,985.24
2018-05-13T13:28:35.552Z,985.17
2018-05-13T13:29:33.816Z,985.19
2018-05-13T13:31:26.353Z,985.16
2018-05-13T13:32:26.102Z,985.13
2018-05-13T13:34:19.461Z,985.03
2018-05-13T13:35:19.992Z,985.11
2018-05-13T13:37:12.222Z,985.18
2018-05-13T13:38:12.111Z,985.05
2018-05-13T13:40:04.991Z,985.08
2018-05-13T13:41:05.981Z,985.04
2018-05-13T13:42:57.710Z,985.04
2018-05-13T13:43:57.626Z,985.03
2018-05-13T13:45:50.509Z,985.00
2018-05-13T13:46:50.397Z,984.94
2018-05-13T13:48:43.700Z,984.96
2018-05-13T13:49:43.626Z,984.99
2018-05-13T13:51:36.519Z,984.92
2018-05-13T13:52:36.380Z,985.03
2018-05-13T13:54:29.226Z,984.94
2018-05-13T13:55:29.161Z,984.92
2018-05-13T13:57:22.006Z,985.02
2018-05-13T13:58:21.943Z,984.92
2018-05-13T14:00:14.718Z,984.84
2018-05-13T14:01:14.627Z,984.86
2018-05-13T14:03:07.477Z,984.93
2018-05-13T14:04:07.377Z,984.92
2018-05-13T14:06:00.210Z,984.89
2018-05-13T14:07:00.128Z,984.99
2018-05-13T14:08:52.991Z,984.89
2018-05-13T14:09:52.882Z,984.95
2018-05-13T14:11:45.705Z,984.81
2018-05-13T14:12:45.795Z,984.86
2018-05-13T14:14:41.718Z,984.85
2018-05-13T14:15:41.667Z,984.74
2018-05-13T14:17:35.312Z,984.77
2018-05-13T14:18:35.232Z,984.83
2018-05-13T14:20:28.159Z,984.73
2018-05-13T14:21:28.156Z,984.78
2018-05-13T14:23:20.858Z,984.83
2018-05-13T14:24:20.732Z,984.82
2018-05-13T14:26:13.624Z,984.80
2018-05-13T14:27:13.656Z,984.82
2018-05-13T14:29:06.456Z,984.83
2018-05-13T14:30:06.320Z,984.86
2018-05-13T14:31:59.156Z,984.84
2018-05-13T14:32:59.182Z,984.82
2018-05-13T14:34:52.461Z,984.78
2018-05-13T14:35:51.832Z,984.85
2018-05-13T14:37:44.644Z,984.78
2018-05-13T14:38:44.563Z,984.72
2018-05-13T14:40:37.488Z,984.74
2018-05-13T14:41:37.354Z,984.76
2018-05-13T14:43:30.147Z,984.74
2018-05-13T14:44:30.074Z,984.71
2018-05-13T14:46:22.917Z,984.74
2018-05-13T14:47:22.924Z,984.70
2018-05-13T14:49:16.150Z,984.71
2018-05-13T14:50:16.154Z,984.70
2018-05-13T14:52:08.921Z,984.74
2018-05-13T14:53:08.825Z,984.70
2018-05-13T14:55:01.676Z,984.76
2018-05-13T14:56:01.573Z,984.73
2018-05-13T14:57:54.420Z,984.71
2018-05-13T14:58:54.344Z,984.76
2018-05-13T15:00:47.166Z,984.72
2018-05-13T15:01:47.099Z,984.70
2018-05-13T15:03:39.941Z,984.73
2018-05-13T15:04:39.884Z,984.77
2018-05-13T15:06:32.823Z,984.76
2018-05-13T15:07:32.577Z,984.79
2018-05-13T15:09:25.923Z,984.74
2018-05-13T15:10:25.863Z,984.79
2018-05-13T15:12:19.198Z,984.72
2018-05-13T15:13:19.095Z,984.65
2018-05-13T15:15:11.949Z,984.57
2018-05-13T15:16:11.865Z,984.65
2018-05-13T15:18:04.698Z,984.68
2018-05-13T15:19:04.623Z,984.61
2018-05-13T15:20:57.961Z,984.66
2018-05-13T15:21:57.855Z,984.59
2018-05-13T15:23:51.228Z,984.60
2018-05-13T15:24:51.140Z,984.58
2018-05-13T15:26:43.985Z,984.64
2018-05-13T15:27:43.868Z,984.52
2018-05-13T15:29:36.756Z,984.63
2018-05-13T15:30:37.136Z,984.60
2018-05-13T15:32:29.478Z,984.53
2018-05-13T15:33:29.363Z,984.54
2018-05-13T15:35:22.236Z,984.56
2018-05-13T15:36:22.141Z,984.45
2018-05-13T15:38:14.949Z,984.49
2018-05-13T15:39:14.889Z,984.50
2018-05-13T15:41:07.720Z,984.47
2018-05-13T15:42:07.608Z,984.52
2018-05-13T15:44:00.462Z,984.48
2018-05-13T15:45:00.366Z,984.54
2018-05-13T15:46:53.241Z,984.48
2018-05-13T15:47:53.113Z,984.55
2018-05-13T15:49:46.001Z,984.60
2018-05-13T15:50:45.916Z,984.46
2018-05-13T15:52:38.747Z,984.48
2018-05-13T15:53:38.612Z,984.47
2018-05-13T15:55:31.465Z,984.58
2018-05-13T15:56:31.357Z,984.66
2018-05-13T15:58:24.246Z,984.68
2018-05-13T15:59:24.109Z,984.70
2018-05-13T16:01:17.009Z,984.73
2018-05-13T16:02:16.882Z,984.76
2018-05-13T16:04:09.736Z,984.72
2018-05-13T16:05:09.633Z,984.75
2018-05-13T16:07:02.955Z,984.73
2018-05-13T16:08:02.883Z,984.75
2018-05-13T16:09:55.740Z,984.72
2018-05-13T16:10:55.623Z,984.73
2018-05-13T16:12:48.474Z,984.78
2018-05-13T16:13:48.388Z,984.81
2018-05-13T16:15:41.279Z,984.78
2018-05-13T16:16:41.152Z,984.71
2018-05-13T16:18:33.950Z,984.76
2018-05-13T16:19:33.881Z,984.76
2018-05-13T16:21:26.758Z,984.75
2018-05-13T16:22:26.653Z,984.74
2018-05-13T16:24:19.464Z,984.81
2018-05-13T16:25:19.392Z,984.90
2018-05-13T16:27:12.230Z,984.78
2018-05-13T16:28:12.238Z,984.74
2018-05-13T16:30:05.138Z,984.85
2018-05-13T16:31:04.866Z,984.84
2018-05-13T16:32:57.743Z,984.81
2018-05-13T16:33:57.640Z,984.83
2018-05-13T16:35:50.990Z,984.87
2018-05-13T16:36:50.887Z,984.91
2018-05-13T16:38:43.742Z,984.85
2018-05-13T16:39:43.637Z,984.89
2018-05-13T16:41:36.473Z,984.93
2018-05-13T16:42:36.385Z,984.88
2018-05-13T16:44:29.255Z,984.74
2018-05-13T16:45:29.132Z,984.87
2018-05-13T16:47:21.978Z,984.90
2018-05-13T16:48:21.886Z,984.85
2018-05-13T16:50:14.754Z,984.89
2018-05-13T16:51:14.648Z,984.76
2018-05-13T16:53:07.581Z,984.62
2018-05-13T16:54:07.492Z,984.81
2018-05-13T16:56:00.355Z,984.82
2018-05-13T16:57:00.260Z,984.84
2018-05-13T16:58:53.083Z,984.89
2018-05-13T16:59:53.016Z,984.87
2018-05-13T17:01:45.893Z,984.88
2018-05-13T17:02:45.809Z,984.84
2018-05-13T17:04:38.568Z,984.87
2018-05-13T17:05:38.484Z,984.86
2018-05-13T17:07:31.485Z,984.90
2018-05-13T17:08:31.421Z,984.91
2018-05-13T17:10:24.082Z,984.88
2018-05-13T17:11:23.989Z,984.89
2018-05-13T17:13:16.946Z,984.90
2018-05-13T17:14:16.840Z,984.95
2018-05-13T17:16:10.715Z,984.94
2018-05-13T17:17:10.682Z,984.97
2018-05-13T17:19:03.460Z,984.95
2018-05-13T17:20:03.365Z,985.00
2018-05-13T17:21:56.382Z,985.01
2018-05-13T17:22:56.214Z,984.97
2018-05-13T17:24:49.093Z,985.02
2018-05-13T17:25:48.956Z,985.04
2018-05-13T17:27:41.809Z,985.01
2018-05-13T17:28:41.715Z,985.14
2018-05-13T17:30:34.562Z,985.14
2018-05-13T17:31:34.461Z,985.10
2018-05-13T17:33:27.284Z,985.12
2018-05-13T17:34:27.230Z,985.11
2018-05-13T17:36:20.169Z,985.15
2018-05-13T17:37:20.179Z,985.11
2018-05-13T17:39:13.126Z,985.19
2018-05-13T17:40:12.807Z,985.19
2018-05-13T17:42:05.699Z,985.20
2018-05-13T17:43:05.577Z,985.21
2018-05-13T17:44:58.419Z,985.24
2018-05-13T17:45:58.308Z,985.21
2018-05-13T17:47:51.511Z,985.20
2018-05-13T17:48:51.091Z,985.19
2018-05-13T17:50:44.082Z,985.23
2018-05-13T17:51:43.862Z,985.25
2018-05-13T17:53:36.755Z,985.19
2018-05-13T17:54:36.567Z,985.27
2018-05-13T17:56:29.390Z,985.22
2018-05-13T17:57:29.444Z,985.23
2018-05-13T17:59:22.175Z,985.13
2018-05-13T18:00:22.064Z,985.14
2018-05-13T18:02:14.968Z,985.22
2018-05-13T18:03:14.824Z,985.14